SPWWH EDHL-EDHL
Flight info
| Callsign | SPWWH |
|---|---|
| Flight time | 0h 5m |
| Altitude | 1100 |
| Route | EDHL DCT EDHL |
| Aircraft | DA40/L-SBDFGRWY/S |
Departure
| Time | 2026-05-07 08:13 |
|---|---|
| Airport | Lübeck Blankensee Airport (EDHL) |
Arrival
| Time | 2026-05-07 08:18 |
|---|---|
| Airport | Lübeck Blankensee Airport (EDHL) |
| Time | Latitude | Longitude | Altitude | Speed | Heading |
|---|---|---|---|---|---|
| 2026-05-07 08:02 | 53.80411 | 10.70056 | 54 ft | 0 kts | 323° |
| 2026-05-07 08:04 | 53.80410 | 10.70057 | 54 ft | 0 kts | 323° |
| 2026-05-07 08:09 | 53.80408 | 10.70054 | 54 ft | 2 kts | 144° |
| 2026-05-07 08:09 | 53.80399 | 10.70085 | 54 ft | 6 kts | 139° |
| 2026-05-07 08:09 | 53.80357 | 10.70123 | 55 ft | 1 kts | 172° |
| 2026-05-07 08:11 | 53.80303 | 10.70141 | 56 ft | 16 kts | 169° |
| 2026-05-07 08:12 | 53.80209 | 10.70215 | 57 ft | 13 kts | 97° |
| 2026-05-07 08:12 | 53.80220 | 10.70305 | 55 ft | 0 kts | 71° |
| 2026-05-07 08:12 | 53.80263 | 10.70523 | 53 ft | 46 kts | 70° |
| 2026-05-07 08:13 | 53.80396 | 10.71199 | 183 ft | 62 kts | 68° |
| 2026-05-07 08:13 | 53.80529 | 10.71869 | 442 ft | 61 kts | 68° |
| 2026-05-07 08:13 | 53.80637 | 10.72594 | 680 ft | 70 kts | 96° |
| 2026-05-07 08:13 | 53.80235 | 10.73102 | 980 ft | 84 kts | 159° |
| 2026-05-07 08:14 | 53.79669 | 10.73413 | 1095 ft | 91 kts | 149° |
| 2026-05-07 08:14 | 53.79014 | 10.73562 | 1146 ft | 107 kts | 191° |
| 2026-05-07 08:14 | 53.78473 | 10.72677 | 1162 ft | 115 kts | 249° |
| 2026-05-07 08:14 | 53.78215 | 10.71351 | 1142 ft | 120 kts | 253° |
| 2026-05-07 08:15 | 53.77976 | 10.70007 | 1143 ft | 119 kts | 246° |
| 2026-05-07 08:15 | 53.77699 | 10.68723 | 1098 ft | 115 kts | 251° |
| 2026-05-07 08:15 | 53.77439 | 10.67463 | 1040 ft | 111 kts | 251° |
| 2026-05-07 08:15 | 53.77498 | 10.66273 | 1036 ft | 101 kts | 308° |
| 2026-05-07 08:16 | 53.78056 | 10.65684 | 1015 ft | 91 kts | 348° |
| 2026-05-07 08:16 | 53.78599 | 10.65362 | 970 ft | 80 kts | 351° |
| 2026-05-07 08:16 | 53.78956 | 10.65219 | 927 ft | 78 kts | 5° |
| 2026-05-07 08:16 | 53.79370 | 10.65674 | 814 ft | 75 kts | 67° |
| 2026-05-07 08:17 | 53.79513 | 10.66551 | 685 ft | 78 kts | 73° |
| 2026-05-07 08:17 | 53.79677 | 10.67427 | 582 ft | 79 kts | 69° |
| 2026-05-07 08:17 | 53.79841 | 10.68304 | 524 ft | 77 kts | 72° |
| 2026-05-07 08:17 | 53.80007 | 10.69147 | 375 ft | 74 kts | 70° |
| 2026-05-07 08:18 | 53.80164 | 10.69979 | 168 ft | 76 kts | 73° |
| 2026-05-07 08:18 | 53.80317 | 10.70805 | 54 ft | 64 kts | 73° |
| 2026-05-07 08:18 | 53.80424 | 10.71365 | 58 ft | 43 kts | 71° |
| 2026-05-07 08:18 | 53.80553 | 10.72022 | 175 ft | 64 kts | 70° |
| 2026-05-07 08:19 | 53.80682 | 10.72726 | 454 ft | 61 kts | 71° |
| 2026-05-07 08:19 | 53.80817 | 10.73453 | 717 ft | 68 kts | 69° |
| 2026-05-07 08:19 | 53.80815 | 10.74256 | 1021 ft | 77 kts | 117° |
| 2026-05-07 08:19 | 53.80279 | 10.74719 | 1087 ft | 99 kts | 158° |
| 2026-05-07 08:20 | 53.79611 | 10.75088 | 1107 ft | 103 kts | 154° |
| 2026-05-07 08:20 | 53.78897 | 10.75279 | 1136 ft | 113 kts | 187° |
| 2026-05-07 08:20 | 53.78311 | 10.74386 | 1149 ft | 120 kts | 247° |
| 2026-05-07 08:20 | 53.78083 | 10.73050 | 1214 ft | 122 kts | 250° |
| 2026-05-07 08:21 | 53.77793 | 10.71663 | 1138 ft | 130 kts | 251° |
| 2026-05-07 08:21 | 53.77514 | 10.70245 | 1075 ft | 122 kts | 255° |
| 2026-05-07 08:21 | 53.77379 | 10.68953 | 1096 ft | 103 kts | 287° |
| 2026-05-07 08:21 | 53.77785 | 10.68144 | 1035 ft | 87 kts | 352° |
| 2026-05-07 08:22 | 53.78374 | 10.68056 | 942 ft | 84 kts | 355° |
| 2026-05-07 08:22 | 53.78945 | 10.67765 | 843 ft | 87 kts | 351° |
| 2026-05-07 08:22 | 53.79532 | 10.67677 | 704 ft | 84 kts | 30° |
| 2026-05-07 08:22 | 53.79885 | 10.68439 | 519 ft | 82 kts | 69° |
| 2026-05-07 08:23 | 53.80037 | 10.69320 | 305 ft | 76 kts | 72° |
| 2026-05-07 08:23 | 53.80196 | 10.70165 | 136 ft | 75 kts | 72° |
| 2026-05-07 08:23 | 53.80346 | 10.70955 | 52 ft | 58 kts | 73° |
| 2026-05-07 08:23 | 53.80446 | 10.71468 | 60 ft | 45 kts | 71° |
| 2026-05-07 08:24 | 53.80568 | 10.72137 | 187 ft | 64 kts | 71° |
| 2026-05-07 08:24 | 53.80698 | 10.72838 | 461 ft | 63 kts | 70° |
| 2026-05-07 08:24 | 53.80793 | 10.73616 | 683 ft | 78 kts | 97° |
| 2026-05-07 08:24 | 53.80357 | 10.74198 | 952 ft | 91 kts | 152° |
| 2026-05-07 08:25 | 53.79766 | 10.74539 | 1147 ft | 93 kts | 153° |
| 2026-05-07 08:25 | 53.79138 | 10.74823 | 1230 ft | 103 kts | 177° |
| 2026-05-07 08:25 | 53.78491 | 10.74169 | 1209 ft | 119 kts | 233° |
| 2026-05-07 08:25 | 53.78209 | 10.72833 | 1152 ft | 122 kts | 253° |
| 2026-05-07 08:26 | 53.77733 | 10.69977 | 1046 ft | 125 kts | 253° |
| 2026-05-07 08:26 | 53.77565 | 10.68597 | 989 ft | 109 kts | 292° |
| 2026-05-07 08:26 | 53.78024 | 10.67944 | 798 ft | 80 kts | 359° |
| 2026-05-07 08:27 | 53.78567 | 10.67965 | 632 ft | 87 kts | 10° |
| 2026-05-07 08:27 | 53.79182 | 10.67841 | 594 ft | 88 kts | 352° |
| 2026-05-07 08:27 | 53.79731 | 10.67900 | 498 ft | 83 kts | 51° |
| 2026-05-07 08:27 | 53.79944 | 10.68781 | 340 ft | 78 kts | 76° |
| 2026-05-07 08:28 | 53.80096 | 10.69633 | 202 ft | 75 kts | 71° |
| 2026-05-07 08:28 | 53.80251 | 10.70463 | 69 ft | 73 kts | 72° |
| 2026-05-07 08:28 | 53.80382 | 10.71139 | 56 ft | 46 kts | 71° |
| 2026-05-07 08:28 | 53.80485 | 10.71665 | 64 ft | 64 kts | 71° |
| 2026-05-07 08:29 | 53.80630 | 10.72402 | 297 ft | 64 kts | 70° |
| 2026-05-07 08:29 | 53.80776 | 10.73145 | 537 ft | 71 kts | 78° |
| 2026-05-07 08:29 | 53.80481 | 10.73813 | 777 ft | 88 kts | 163° |
| 2026-05-07 08:29 | 53.79894 | 10.74074 | 1085 ft | 89 kts | 156° |
| 2026-05-07 08:30 | 53.79269 | 10.74383 | 1137 ft | 101 kts | 155° |
| 2026-05-07 08:30 | 53.78542 | 10.74264 | 1139 ft | 115 kts | 207° |
| 2026-05-07 08:30 | 53.78112 | 10.73114 | 1152 ft | 118 kts | 252° |
| 2026-05-07 08:30 | 53.77871 | 10.71786 | 1238 ft | 120 kts | 252° |
| 2026-05-07 08:31 | 53.77775 | 10.70500 | 1229 ft | 95 kts | 301° |
| 2026-05-07 08:31 | 53.78235 | 10.69982 | 1053 ft | 79 kts | 352° |
| 2026-05-07 08:31 | 53.78778 | 10.69825 | 850 ft | 78 kts | 5° |
| 2026-05-07 08:31 | 53.79315 | 10.69759 | 634 ft | 78 kts | 6° |
| 2026-05-07 08:32 | 53.79828 | 10.69794 | 429 ft | 65 kts | 26° |
| 2026-05-07 08:32 | 53.80181 | 10.70198 | 168 ft | 62 kts | 54° |
| 2026-05-07 08:32 | 53.80315 | 10.70795 | 53 ft | 41 kts | 73° |
| 2026-05-07 08:32 | 53.80432 | 10.71391 | 113 ft | 63 kts | 70° |
| 2026-05-07 08:33 | 53.80559 | 10.72102 | 359 ft | 62 kts | 72° |
| 2026-05-07 08:33 | 53.80652 | 10.72850 | 596 ft | 74 kts | 97° |
| 2026-05-07 08:33 | 53.80223 | 10.73390 | 921 ft | 83 kts | 159° |
| 2026-05-07 08:33 | 53.79679 | 10.73647 | 1122 ft | 87 kts | 153° |
| 2026-05-07 08:34 | 53.79048 | 10.74012 | 1093 ft | 105 kts | 159° |
| 2026-05-07 08:34 | 53.78299 | 10.73727 | 1122 ft | 118 kts | 208° |
| 2026-05-07 08:34 | 53.77825 | 10.72614 | 1116 ft | 125 kts | 252° |
| 2026-05-07 08:34 | 53.77571 | 10.71195 | 1107 ft | 125 kts | 262° |
| 2026-05-07 08:35 | 53.77895 | 10.70224 | 1083 ft | 87 kts | 353° |
| 2026-05-07 08:35 | 53.78469 | 10.70064 | 860 ft | 84 kts | 1° |
| 2026-05-07 08:35 | 53.79039 | 10.69933 | 649 ft | 81 kts | 2° |
| 2026-05-07 08:35 | 53.79610 | 10.69817 | 404 ft | 83 kts | 3° |
| 2026-05-07 08:36 | 53.80126 | 10.70049 | 148 ft | 76 kts | 53° |
| 2026-05-07 08:36 | 53.80315 | 10.70789 | 55 ft | 57 kts | 72° |
| 2026-05-07 08:36 | 53.80412 | 10.71313 | 59 ft | 39 kts | 70° |
| 2026-05-07 08:36 | 53.80498 | 10.71740 | 54 ft | 39 kts | 70° |
| 2026-05-07 08:37 | 53.80572 | 10.71960 | 51 ft | 14 kts | 307° |
| 2026-05-07 08:37 | 53.80615 | 10.71808 | 54 ft | 15 kts | 296° |
| 2026-05-07 08:37 | 53.80660 | 10.71557 | 54 ft | 24 kts | 253° |
| 2026-05-07 08:37 | 53.80599 | 10.71234 | 56 ft | 33 kts | 252° |
| 2026-05-07 08:38 | 53.80528 | 10.70875 | 52 ft | 31 kts | 252° |
| 2026-05-07 08:38 | 53.80464 | 10.70535 | 52 ft | 26 kts | 251° |
| 2026-05-07 08:38 | 53.80455 | 10.70489 | 52 ft | 0 kts | 251° |
| 2026-05-07 08:39 | 53.80440 | 10.70415 | 52 ft | 14 kts | 250° |
| 2026-05-07 08:39 | 53.80409 | 10.70237 | 52 ft | 9 kts | 284° |
| 2026-05-07 08:39 | 53.80408 | 10.70219 | 52 ft | 4 kts | 231° |
| 2026-05-07 08:39 | 53.80393 | 10.70095 | 54 ft | 12 kts | 311° |
| 2026-05-07 08:40 | 53.80405 | 10.70077 | 54 ft | 0 kts | 314° |